sensor_id;sensor_type;location;lat;lon;timestamp;temperature;humidity
14517;DHT22;7344;50.864;4.362;2023-07-16T00:01:05;18.10;25.20
14517;DHT22;7344;50.864;4.362;2023-07-16T00:03:30;18.10;19.50
14517;DHT22;7344;50.864;4.362;2023-07-16T00:05:56;18.10;28.70
14517;DHT22;7344;50.864;4.362;2023-07-16T00:08:22;18.00;28.00
14517;DHT22;7344;50.864;4.362;2023-07-16T00:10:47;18.00;32.30
14517;DHT22;7344;50.864;4.362;2023-07-16T00:13:13;18.10;34.30
14517;DHT22;7344;50.864;4.362;2023-07-16T00:15:39;18.10;36.70
14517;DHT22;7344;50.864;4.362;2023-07-16T00:18:04;18.10;34.80
14517;DHT22;7344;50.864;4.362;2023-07-16T00:20:31;18.00;36.60
14517;DHT22;7344;50.864;4.362;2023-07-16T00:22:57;17.90;37.50
14517;DHT22;7344;50.864;4.362;2023-07-16T00:25:23;17.90;35.90
14517;DHT22;7344;50.864;4.362;2023-07-16T00:27:48;17.90;42.20
14517;DHT22;7344;50.864;4.362;2023-07-16T00:30:14;17.90;40.00
14517;DHT22;7344;50.864;4.362;2023-07-16T00:32:39;17.80;45.90
14517;DHT22;7344;50.864;4.362;2023-07-16T00:35:05;17.70;43.30
14517;DHT22;7344;50.864;4.362;2023-07-16T00:37:31;17.70;45.60
14517;DHT22;7344;50.864;4.362;2023-07-16T00:39:57;17.80;44.90
14517;DHT22;7344;50.864;4.362;2023-07-16T00:42:22;17.70;45.90
14517;DHT22;7344;50.864;4.362;2023-07-16T00:44:48;17.70;45.30
14517;DHT22;7344;50.864;4.362;2023-07-16T00:47:13;17.70;53.20
14517;DHT22;7344;50.864;4.362;2023-07-16T00:49:39;17.70;58.00
14517;DHT22;7344;50.864;4.362;2023-07-16T00:52:09;17.70;59.80
14517;DHT22;7344;50.864;4.362;2023-07-16T00:54:37;17.60;69.10
14517;DHT22;7344;50.864;4.362;2023-07-16T00:57:03;17.60;77.30
14517;DHT22;7344;50.864;4.362;2023-07-16T00:59:29;17.50;84.50
14517;DHT22;7344;50.864;4.362;2023-07-16T01:01:54;17.50;91.20
14517;DHT22;7344;50.864;4.362;2023-07-16T01:04:20;17.50;92.40
14517;DHT22;7344;50.864;4.362;2023-07-16T01:06:52;17.50;91.10
14517;DHT22;7344;50.864;4.362;2023-07-16T01:09:20;17.50;87.50
14517;DHT22;7344;50.864;4.362;2023-07-16T01:11:47;17.40;78.80
14517;DHT22;7344;50.864;4.362;2023-07-16T01:14:14;17.40;65.20
14517;DHT22;7344;50.864;4.362;2023-07-16T01:16:41;17.40;60.60
14517;DHT22;7344;50.864;4.362;2023-07-16T01:19:08;17.30;48.80
14517;DHT22;7344;50.864;4.362;2023-07-16T01:24:44;17.20;26.30
14517;DHT22;7344;50.864;4.362;2023-07-16T01:29:54;17.20;15.00
14517;DHT22;7344;50.864;4.362;2023-07-16T01:32:21;17.20;3.80
14517;DHT22;7344;50.864;4.362;2023-07-16T01:34:47;17.20;5.50
14517;DHT22;7344;50.864;4.362;2023-07-16T01:37:13;17.20;1.00
14517;DHT22;7344;50.864;4.362;2023-07-16T01:39:39;17.10;1.00
14517;DHT22;7344;50.864;4.362;2023-07-16T01:42:06;17.10;1.00
14517;DHT22;7344;50.864;4.362;2023-07-16T01:44:32;17.10;1.00
14517;DHT22;7344;50.864;4.362;2023-07-16T01:47:15;17.10;1.00
14517;DHT22;7344;50.864;4.362;2023-07-16T01:49:45;17.00;1.00
14517;DHT22;7344;50.864;4.362;2023-07-16T01:52:10;17.00;1.00
14517;DHT22;7344;50.864;4.362;2023-07-16T01:54:36;17.10;1.00
14517;DHT22;7344;50.864;4.362;2023-07-16T01:57:02;17.00;1.00
14517;DHT22;7344;50.864;4.362;2023-07-16T01:59:28;17.00;1.00
14517;DHT22;7344;50.864;4.362;2023-07-16T02:01:54;16.90;1.00
14517;DHT22;7344;50.864;4.362;2023-07-16T02:04:20;16.90;1.00
14517;DHT22;7344;50.864;4.362;2023-07-16T02:06:46;16.80;1.00
14517;DHT22;7344;50.864;4.362;2023-07-16T02:09:13;16.80;1.00
14517;DHT22;7344;50.864;4.362;2023-07-16T02:11:39;16.80;1.00
14517;DHT22;7344;50.864;4.362;2023-07-16T02:14:04;16.80;1.00
14517;DHT22;7344;50.864;4.362;2023-07-16T02:16:30;16.80;1.00
14517;DHT22;7344;50.864;4.362;2023-07-16T02:18:56;16.80;1.00
14517;DHT22;7344;50.864;4.362;2023-07-16T02:21:21;16.70;1.00
14517;DHT22;7344;50.864;4.362;2023-07-16T02:23:47;16.80;1.00
14517;DHT22;7344;50.864;4.362;2023-07-16T02:26:12;16.80;1.00
14517;DHT22;7344;50.864;4.362;2023-07-16T02:28:38;16.70;1.00
14517;DHT22;7344;50.864;4.362;2023-07-16T02:31:04;16.70;1.00
14517;DHT22;7344;50.864;4.362;2023-07-16T02:33:30;16.70;1.00
14517;DHT22;7344;50.864;4.362;2023-07-16T02:35:55;16.70;1.00
14517;DHT22;7344;50.864;4.362;2023-07-16T02:38:21;16.60;1.00
14517;DHT22;7344;50.864;4.362;2023-07-16T02:40:47;16.60;1.00
14517;DHT22;7344;50.864;4.362;2023-07-16T02:43:14;16.60;1.00
14517;DHT22;7344;50.864;4.362;2023-07-16T02:45:40;16.60;1.00
14517;DHT22;7344;50.864;4.362;2023-07-16T02:48:06;16.70;1.00
14517;DHT22;7344;50.864;4.362;2023-07-16T02:50:36;16.60;1.00
14517;DHT22;7344;50.864;4.362;2023-07-16T02:53:04;16.60;1.00
14517;DHT22;7344;50.864;4.362;2023-07-16T02:55:31;16.60;1.00
14517;DHT22;7344;50.864;4.362;2023-07-16T02:57:56;16.60;1.00
14517;DHT22;7344;50.864;4.362;2023-07-16T03:00:22;16.60;1.00
14517;DHT22;7344;50.864;4.362;2023-07-16T03:02:48;16.60;1.00
14517;DHT22;7344;50.864;4.362;2023-07-16T03:05:16;16.60;1.00
14517;DHT22;7344;50.864;4.362;2023-07-16T03:07:41;16.60;1.00
14517;DHT22;7344;50.864;4.362;2023-07-16T03:10:07;16.50;1.00
14517;DHT22;7344;50.864;4.362;2023-07-16T03:12:33;16.50;1.00
14517;DHT22;7344;50.864;4.362;2023-07-16T03:14:59;16.50;1.00
14517;DHT22;7344;50.864;4.362;2023-07-16T03:17:24;16.50;1.00
14517;DHT22;7344;50.864;4.362;2023-07-16T03:19:50;16.60;1.00
14517;DHT22;7344;50.864;4.362;2023-07-16T03:22:16;16.50;1.00
14517;DHT22;7344;50.864;4.362;2023-07-16T03:24:41;16.50;1.00
14517;DHT22;7344;50.864;4.362;2023-07-16T03:27:07;16.50;1.00
14517;DHT22;7344;50.864;4.362;2023-07-16T03:29:33;16.50;1.00
14517;DHT22;7344;50.864;4.362;2023-07-16T03:31:59;16.40;1.00
14517;DHT22;7344;50.864;4.362;2023-07-16T03:34:24;16.40;1.00
14517;DHT22;7344;50.864;4.362;2023-07-16T03:36:50;16.40;1.00
14517;DHT22;7344;50.864;4.362;2023-07-16T03:39:16;16.40;1.00
14517;DHT22;7344;50.864;4.362;2023-07-16T03:41:41;16.40;1.00
14517;DHT22;7344;50.864;4.362;2023-07-16T03:44:07;16.40;1.00
14517;DHT22;7344;50.864;4.362;2023-07-16T03:46:33;16.40;1.00
14517;DHT22;7344;50.864;4.362;2023-07-16T03:48:58;16.40;1.00
14517;DHT22;7344;50.864;4.362;2023-07-16T03:51:24;16.30;1.00
14517;DHT22;7344;50.864;4.362;2023-07-16T03:53:50;16.40;1.00
14517;DHT22;7344;50.864;4.362;2023-07-16T03:56:15;16.40;1.00
14517;DHT22;7344;50.864;4.362;2023-07-16T03:58:41;16.40;1.00
14517;DHT22;7344;50.864;4.362;2023-07-16T04:01:07;16.40;1.00
14517;DHT22;7344;50.864;4.362;2023-07-16T04:03:32;16.40;1.00
14517;DHT22;7344;50.864;4.362;2023-07-16T04:06:05;16.50;1.00
14517;DHT22;7344;50.864;4.362;2023-07-16T04:08:31;16.60;1.00
14517;DHT22;7344;50.864;4.362;2023-07-16T04:10:57;16.70;1.00
14517;DHT22;7344;50.864;4.362;2023-07-16T04:13:23;16.80;1.00
14517;DHT22;7344;50.864;4.362;2023-07-16T04:15:49;16.90;1.00
14517;DHT22;7344;50.864;4.362;2023-07-16T04:18:14;17.10;1.00
14517;DHT22;7344;50.864;4.362;2023-07-16T04:20:40;17.40;1.00
14517;DHT22;7344;50.864;4.362;2023-07-16T04:23:05;17.70;1.00
14517;DHT22;7344;50.864;4.362;2023-07-16T04:25:31;17.90;1.00
14517;DHT22;7344;50.864;4.362;2023-07-16T04:27:57;18.20;1.00
14517;DHT22;7344;50.864;4.362;2023-07-16T04:30:22;18.40;1.00
14517;DHT22;7344;50.864;4.362;2023-07-16T04:32:48;18.50;1.00
14517;DHT22;7344;50.864;4.362;2023-07-16T04:35:14;18.70;1.00
14517;DHT22;7344;50.864;4.362;2023-07-16T04:37:39;19.00;1.00
14517;DHT22;7344;50.864;4.362;2023-07-16T04:40:05;19.40;1.00
14517;DHT22;7344;50.864;4.362;2023-07-16T04:42:31;19.80;1.00
14517;DHT22;7344;50.864;4.362;2023-07-16T04:44:57;20.00;1.00
14517;DHT22;7344;50.864;4.362;2023-07-16T04:47:22;20.00;1.00
14517;DHT22;7344;50.864;4.362;2023-07-16T04:49:48;20.20;1.00
14517;DHT22;7344;50.864;4.362;2023-07-16T04:52:13;20.10;1.00
14517;DHT22;7344;50.864;4.362;2023-07-16T04:54:39;20.40;99.90
14517;DHT22;7344;50.864;4.362;2023-07-16T04:57:07;20.60;99.90
14517;DHT22;7344;50.864;4.362;2023-07-16T04:59:34;20.90;95.60
14517;DHT22;7344;50.864;4.362;2023-07-16T05:02:01;21.10;99.90
14517;DHT22;7344;50.864;4.362;2023-07-16T05:04:27;21.40;99.90
14517;DHT22;7344;50.864;4.362;2023-07-16T05:06:53;21.60;99.90
14517;DHT22;7344;50.864;4.362;2023-07-16T05:09:18;21.70;1.00
14517;DHT22;7344;50.864;4.362;2023-07-16T05:11:45;22.00;99.90
14517;DHT22;7344;50.864;4.362;2023-07-16T05:14:11;22.20;99.90
14517;DHT22;7344;50.864;4.362;2023-07-16T05:16:36;22.60;97.20
14517;DHT22;7344;50.864;4.362;2023-07-16T05:19:02;23.20;1.00
14517;DHT22;7344;50.864;4.362;2023-07-16T05:21:28;23.20;1.00
14517;DHT22;7344;50.864;4.362;2023-07-16T05:23:53;23.40;1.00
14517;DHT22;7344;50.864;4.362;2023-07-16T05:26:19;23.90;99.90
14517;DHT22;7344;50.864;4.362;2023-07-16T05:28:44;23.70;96.20
14517;DHT22;7344;50.864;4.362;2023-07-16T05:31:10;23.60;99.90
14517;DHT22;7344;50.864;4.362;2023-07-16T05:33:36;24.00;1.00
14517;DHT22;7344;50.864;4.362;2023-07-16T05:36:01;24.20;1.00
14517;DHT22;7344;50.864;4.362;2023-07-16T05:38:27;24.70;99.90
14517;DHT22;7344;50.864;4.362;2023-07-16T05:40:53;25.10;93.40
14517;DHT22;7344;50.864;4.362;2023-07-16T05:43:18;25.90;1.00
14517;DHT22;7344;50.864;4.362;2023-07-16T05:45:44;25.90;99.90
14517;DHT22;7344;50.864;4.362;2023-07-16T05:48:10;25.30;1.00
14517;DHT22;7344;50.864;4.362;2023-07-16T05:50:35;25.30;1.00
14517;DHT22;7344;50.864;4.362;2023-07-16T05:53:03;25.50;1.00
14517;DHT22;7344;50.864;4.362;2023-07-16T05:55:28;25.20;1.00
14517;DHT22;7344;50.864;4.362;2023-07-16T05:57:54;25.20;1.00
14517;DHT22;7344;50.864;4.362;2023-07-16T06:00:20;26.10;99.90
14517;DHT22;7344;50.864;4.362;2023-07-16T06:02:45;26.70;99.90
14517;DHT22;7344;50.864;4.362;2023-07-16T06:05:11;27.40;1.00
14517;DHT22;7344;50.864;4.362;2023-07-16T06:07:36;27.00;1.00
14517;DHT22;7344;50.864;4.362;2023-07-16T06:10:05;27.00;1.00
14517;DHT22;7344;50.864;4.362;2023-07-16T06:12:31;27.10;1.00
14517;DHT22;7344;50.864;4.362;2023-07-16T06:14:57;26.10;38.40
14517;DHT22;7344;50.864;4.362;2023-07-16T06:17:22;26.00;99.90
14517;DHT22;7344;50.864;4.362;2023-07-16T06:19:48;26.00;99.90
14517;DHT22;7344;50.864;4.362;2023-07-16T06:22:15;26.00;99.90
14517;DHT22;7344;50.864;4.362;2023-07-16T06:24:42;26.60;68.80
14517;DHT22;7344;50.864;4.362;2023-07-16T06:27:07;27.10;1.00
14517;DHT22;7344;50.864;4.362;2023-07-16T06:29:33;25.70;99.90
14517;DHT22;7344;50.864;4.362;2023-07-16T06:31:59;25.90;99.90
14517;DHT22;7344;50.864;4.362;2023-07-16T06:34:25;26.00;99.90
14517;DHT22;7344;50.864;4.362;2023-07-16T06:36:51;25.80;99.90
14517;DHT22;7344;50.864;4.362;2023-07-16T06:39:16;26.50;99.90
14517;DHT22;7344;50.864;4.362;2023-07-16T06:41:42;27.20;1.00
14517;DHT22;7344;50.864;4.362;2023-07-16T06:44:08;26.70;13.90
14517;DHT22;7344;50.864;4.362;2023-07-16T06:46:33;26.50;33.40
14517;DHT22;7344;50.864;4.362;2023-07-16T06:48:59;27.00;10.50
14517;DHT22;7344;50.864;4.362;2023-07-16T06:51:25;27.80;1.00
14517;DHT22;7344;50.864;4.362;2023-07-16T06:53:50;28.10;1.00
14517;DHT22;7344;50.864;4.362;2023-07-16T06:56:16;27.40;1.00
14517;DHT22;7344;50.864;4.362;2023-07-16T06:58:41;26.40;1.00
14517;DHT22;7344;50.864;4.362;2023-07-16T07:01:07;27.50;1.00
14517;DHT22;7344;50.864;4.362;2023-07-16T07:03:33;26.70;1.00
14517;DHT22;7344;50.864;4.362;2023-07-16T07:06:02;26.60;1.00
14517;DHT22;7344;50.864;4.362;2023-07-16T07:08:28;26.70;1.00
14517;DHT22;7344;50.864;4.362;2023-07-16T07:10:53;27.50;1.00
14517;DHT22;7344;50.864;4.362;2023-07-16T07:13:19;27.20;1.00
14517;DHT22;7344;50.864;4.362;2023-07-16T07:15:44;26.60;1.00
14517;DHT22;7344;50.864;4.362;2023-07-16T07:18:10;27.20;1.00
14517;DHT22;7344;50.864;4.362;2023-07-16T07:20:36;27.10;1.00
14517;DHT22;7344;50.864;4.362;2023-07-16T07:23:01;26.60;1.00
14517;DHT22;7344;50.864;4.362;2023-07-16T07:25:28;26.50;20.10
14517;DHT22;7344;50.864;4.362;2023-07-16T07:27:54;27.20;1.00
14517;DHT22;7344;50.864;4.362;2023-07-16T07:30:20;27.50;1.00
14517;DHT22;7344;50.864;4.362;2023-07-16T07:32:45;27.10;1.00
14517;DHT22;7344;50.864;4.362;2023-07-16T07:35:11;27.60;1.00
14517;DHT22;7344;50.864;4.362;2023-07-16T07:37:37;27.90;1.00
14517;DHT22;7344;50.864;4.362;2023-07-16T07:40:02;27.30;1.00
14517;DHT22;7344;50.864;4.362;2023-07-16T07:42:29;26.00;99.90
14517;DHT22;7344;50.864;4.362;2023-07-16T07:44:55;24.80;99.90
14517;DHT22;7344;50.864;4.362;2023-07-16T07:47:21;23.90;1.00
14517;DHT22;7344;50.864;4.362;2023-07-16T07:49:46;24.20;99.90
14517;DHT22;7344;50.864;4.362;2023-07-16T07:52:12;24.20;56.20
14517;DHT22;7344;50.864;4.362;2023-07-16T07:54:38;25.70;99.90
14517;DHT22;7344;50.864;4.362;2023-07-16T07:57:04;26.30;1.00
14517;DHT22;7344;50.864;4.362;2023-07-16T07:59:30;26.50;99.90
14517;DHT22;7344;50.864;4.362;2023-07-16T08:01:57;26.70;99.90
14517;DHT22;7344;50.864;4.362;2023-07-16T08:04:23;25.60;99.90
14517;DHT22;7344;50.864;4.362;2023-07-16T08:06:50;25.20;1.00
14517;DHT22;7344;50.864;4.362;2023-07-16T08:09:15;25.00;99.90
14517;DHT22;7344;50.864;4.362;2023-07-16T08:11:41;24.90;1.00
14517;DHT22;7344;50.864;4.362;2023-07-16T08:14:07;25.30;1.00
14517;DHT22;7344;50.864;4.362;2023-07-16T08:16:32;26.30;1.00
14517;DHT22;7344;50.864;4.362;2023-07-16T08:18:58;27.30;99.90
14517;DHT22;7344;50.864;4.362;2023-07-16T08:21:24;28.30;1.00
14517;DHT22;7344;50.864;4.362;2023-07-16T08:23:49;29.10;1.00
14517;DHT22;7344;50.864;4.362;2023-07-16T08:26:16;29.50;1.00
14517;DHT22;7344;50.864;4.362;2023-07-16T08:28:42;29.10;1.00
14517;DHT22;7344;50.864;4.362;2023-07-16T08:31:08;28.80;1.00
14517;DHT22;7344;50.864;4.362;2023-07-16T08:33:34;27.60;1.00
14517;DHT22;7344;50.864;4.362;2023-07-16T08:36:00;28.20;1.00
14517;DHT22;7344;50.864;4.362;2023-07-16T08:38:25;28.90;1.00
14517;DHT22;7344;50.864;4.362;2023-07-16T08:40:51;28.70;1.00
14517;DHT22;7344;50.864;4.362;2023-07-16T08:43:17;28.30;1.00
14517;DHT22;7344;50.864;4.362;2023-07-16T08:45:44;27.30;1.00
14517;DHT22;7344;50.864;4.362;2023-07-16T08:48:11;27.00;1.00
14517;DHT22;7344;50.864;4.362;2023-07-16T08:50:37;26.20;99.90
14517;DHT22;7344;50.864;4.362;2023-07-16T08:53:07;25.90;99.90
14517;DHT22;7344;50.864;4.362;2023-07-16T08:55:34;26.00;99.90
14517;DHT22;7344;50.864;4.362;2023-07-16T08:58:04;25.80;99.90
14517;DHT22;7344;50.864;4.362;2023-07-16T09:00:30;25.30;1.00
14517;DHT22;7344;50.864;4.362;2023-07-16T09:02:57;24.60;1.00
14517;DHT22;7344;50.864;4.362;2023-07-16T09:05:23;24.10;71.00
14517;DHT22;7344;50.864;4.362;2023-07-16T09:07:49;23.40;99.90
14517;DHT22;7344;50.864;4.362;2023-07-16T09:10:15;23.40;1.00
14517;DHT22;7344;50.864;4.362;2023-07-16T09:12:45;24.20;1.00
14517;DHT22;7344;50.864;4.362;2023-07-16T09:15:13;23.90;1.00
14517;DHT22;7344;50.864;4.362;2023-07-16T09:17:41;23.70;99.90
14517;DHT22;7344;50.864;4.362;2023-07-16T09:20:07;24.00;1.00
14517;DHT22;7344;50.864;4.362;2023-07-16T09:22:34;24.00;1.00
14517;DHT22;7344;50.864;4.362;2023-07-16T09:25:03;24.10;99.90
14517;DHT22;7344;50.864;4.362;2023-07-16T09:27:30;23.40;1.00
14517;DHT22;7344;50.864;4.362;2023-07-16T09:29:55;23.10;1.00
14517;DHT22;7344;50.864;4.362;2023-07-16T09:32:21;22.90;23.70
14517;DHT22;7344;50.864;4.362;2023-07-16T09:34:49;22.60;99.90
14517;DHT22;7344;50.864;4.362;2023-07-16T09:37:17;22.50;99.90
14517;DHT22;7344;50.864;4.362;2023-07-16T09:39:45;22.40;96.60
14517;DHT22;7344;50.864;4.362;2023-07-16T09:42:12;22.30;1.00
14517;DHT22;7344;50.864;4.362;2023-07-16T09:44:40;22.10;1.00
14517;DHT22;7344;50.864;4.362;2023-07-16T09:47:07;22.00;57.60
14517;DHT22;7344;50.864;4.362;2023-07-16T09:49:32;21.80;1.00
14517;DHT22;7344;50.864;4.362;2023-07-16T09:51:58;22.00;1.00
14517;DHT22;7344;50.864;4.362;2023-07-16T09:54:32;21.80;1.00
14517;DHT22;7344;50.864;4.362;2023-07-16T09:57:03;21.90;99.90
14517;DHT22;7344;50.864;4.362;2023-07-16T09:59:32;21.80;99.90
14517;DHT22;7344;50.864;4.362;2023-07-16T10:01:59;21.70;99.90
14517;DHT22;7344;50.864;4.362;2023-07-16T10:04:25;21.60;99.90
14517;DHT22;7344;50.864;4.362;2023-07-16T10:06:57;21.70;99.90
14517;DHT22;7344;50.864;4.362;2023-07-16T10:09:50;21.70;99.90
14517;DHT22;7344;50.864;4.362;2023-07-16T10:12:18;21.60;99.90
14517;DHT22;7344;50.864;4.362;2023-07-16T10:14:49;21.50;99.90
14517;DHT22;7344;50.864;4.362;2023-07-16T10:17:15;21.30;1.00
14517;DHT22;7344;50.864;4.362;2023-07-16T10:19:55;21.20;1.00
14517;DHT22;7344;50.864;4.362;2023-07-16T10:22:32;21.20;1.00
14517;DHT22;7344;50.864;4.362;2023-07-16T10:24:58;21.20;1.00
14517;DHT22;7344;50.864;4.362;2023-07-16T10:27:33;21.20;1.00
14517;DHT22;7344;50.864;4.362;2023-07-16T10:30:03;21.20;1.00
14517;DHT22;7344;50.864;4.362;2023-07-16T10:32:31;21.30;1.00
14517;DHT22;7344;50.864;4.362;2023-07-16T10:34:57;21.40;1.00
14517;DHT22;7344;50.864;4.362;2023-07-16T10:37:25;21.60;1.00
14517;DHT22;7344;50.864;4.362;2023-07-16T10:39:53;21.60;1.00
14517;DHT22;7344;50.864;4.362;2023-07-16T10:42:20;21.50;1.00
14517;DHT22;7344;50.864;4.362;2023-07-16T10:44:49;21.40;1.00
14517;DHT22;7344;50.864;4.362;2023-07-16T10:47:30;21.10;1.00
14517;DHT22;7344;50.864;4.362;2023-07-16T10:49:56;21.20;1.00
14517;DHT22;7344;50.864;4.362;2023-07-16T10:52:24;21.70;1.00
14517;DHT22;7344;50.864;4.362;2023-07-16T10:54:51;22.10;1.00
14517;DHT22;7344;50.864;4.362;2023-07-16T10:57:24;22.70;1.00
14517;DHT22;7344;50.864;4.362;2023-07-16T10:59:51;23.30;1.00
14517;DHT22;7344;50.864;4.362;2023-07-16T11:02:17;23.20;1.00
14517;DHT22;7344;50.864;4.362;2023-07-16T11:04:45;22.70;99.90
14517;DHT22;7344;50.864;4.362;2023-07-16T11:07:12;22.60;99.90
14517;DHT22;7344;50.864;4.362;2023-07-16T11:09:54;22.30;99.90
14517;DHT22;7344;50.864;4.362;2023-07-16T11:12:22;22.10;99.90
14517;DHT22;7344;50.864;4.362;2023-07-16T11:14:53;22.00;1.00
14517;DHT22;7344;50.864;4.362;2023-07-16T11:17:19;22.00;1.00
14517;DHT22;7344;50.864;4.362;2023-07-16T11:19:47;22.10;1.00
14517;DHT22;7344;50.864;4.362;2023-07-16T11:22:14;21.80;1.00
14517;DHT22;7344;50.864;4.362;2023-07-16T11:24:45;21.90;1.00
14517;DHT22;7344;50.864;4.362;2023-07-16T11:27:41;22.00;1.00
14517;DHT22;7344;50.864;4.362;2023-07-16T11:30:08;22.10;1.00
14517;DHT22;7344;50.864;4.362;2023-07-16T11:32:41;22.40;1.00
14517;DHT22;7344;50.864;4.362;2023-07-16T11:35:07;22.90;1.00
14517;DHT22;7344;50.864;4.362;2023-07-16T11:37:34;23.10;39.50
14517;DHT22;7344;50.864;4.362;2023-07-16T11:40:08;24.00;1.00
14517;DHT22;7344;50.864;4.362;2023-07-16T11:45:02;24.90;99.90
14517;DHT22;7344;50.864;4.362;2023-07-16T11:47:28;24.80;1.00
14517;DHT22;7344;50.864;4.362;2023-07-16T11:49:54;25.20;1.00
14517;DHT22;7344;50.864;4.362;2023-07-16T11:52:22;25.00;1.00
14517;DHT22;7344;50.864;4.362;2023-07-16T11:54:48;25.10;1.00
14517;DHT22;7344;50.864;4.362;2023-07-16T11:57:15;25.30;96.50
14517;DHT22;7344;50.864;4.362;2023-07-16T11:59:41;25.60;1.00
14517;DHT22;7344;50.864;4.362;2023-07-16T12:02:07;25.00;1.00
14517;DHT22;7344;50.864;4.362;2023-07-16T12:04:32;24.60;99.90
14517;DHT22;7344;50.864;4.362;2023-07-16T12:06:58;24.70;35.90
14517;DHT22;7344;50.864;4.362;2023-07-16T12:09:24;24.60;1.00
14517;DHT22;7344;50.864;4.362;2023-07-16T12:11:49;24.50;1.00
14517;DHT22;7344;50.864;4.362;2023-07-16T12:14:15;24.60;1.00
14517;DHT22;7344;50.864;4.362;2023-07-16T12:16:40;24.60;1.00
14517;DHT22;7344;50.864;4.362;2023-07-16T12:19:08;24.50;99.90
14517;DHT22;7344;50.864;4.362;2023-07-16T12:21:34;24.30;99.90
14517;DHT22;7344;50.864;4.362;2023-07-16T12:23:59;24.40;99.90
14517;DHT22;7344;50.864;4.362;2023-07-16T12:26:25;24.70;99.90
14517;DHT22;7344;50.864;4.362;2023-07-16T12:28:51;24.50;99.90
14517;DHT22;7344;50.864;4.362;2023-07-16T12:31:16;24.00;99.90
14517;DHT22;7344;50.864;4.362;2023-07-16T12:33:43;23.70;99.90
14517;DHT22;7344;50.864;4.362;2023-07-16T12:36:09;23.20;1.00
14517;DHT22;7344;50.864;4.362;2023-07-16T12:38:34;23.20;99.90
14517;DHT22;7344;50.864;4.362;2023-07-16T12:41:00;23.00;99.90
14517;DHT22;7344;50.864;4.362;2023-07-16T12:43:26;22.90;1.00
14517;DHT22;7344;50.864;4.362;2023-07-16T12:45:51;22.90;1.00
14517;DHT22;7344;50.864;4.362;2023-07-16T12:48:17;23.20;99.90
14517;DHT22;7344;50.864;4.362;2023-07-16T12:50:43;23.40;99.90
14517;DHT22;7344;50.864;4.362;2023-07-16T12:53:08;23.70;1.00
14517;DHT22;7344;50.864;4.362;2023-07-16T12:55:34;24.30;99.90
14517;DHT22;7344;50.864;4.362;2023-07-16T12:57:59;24.50;1.00
14517;DHT22;7344;50.864;4.362;2023-07-16T13:00:25;24.30;1.00
14517;DHT22;7344;50.864;4.362;2023-07-16T13:02:51;24.10;1.00
14517;DHT22;7344;50.864;4.362;2023-07-16T13:05:17;24.00;24.80
14517;DHT22;7344;50.864;4.362;2023-07-16T13:07:42;24.10;99.90
14517;DHT22;7344;50.864;4.362;2023-07-16T13:10:08;24.10;99.90
14517;DHT22;7344;50.864;4.362;2023-07-16T13:12:34;24.20;99.90
14517;DHT22;7344;50.864;4.362;2023-07-16T13:15:00;24.70;1.00
14517;DHT22;7344;50.864;4.362;2023-07-16T13:17:26;24.80;1.00
14517;DHT22;7344;50.864;4.362;2023-07-16T13:19:51;24.70;1.00
14517;DHT22;7344;50.864;4.362;2023-07-16T13:22:17;24.50;99.90
14517;DHT22;7344;50.864;4.362;2023-07-16T13:24:42;24.60;99.90
14517;DHT22;7344;50.864;4.362;2023-07-16T13:27:18;24.30;1.00
14517;DHT22;7344;50.864;4.362;2023-07-16T13:29:44;24.40;1.00
14517;DHT22;7344;50.864;4.362;2023-07-16T13:32:10;24.50;1.00
14517;DHT22;7344;50.864;4.362;2023-07-16T13:34:35;24.40;99.90
14517;DHT22;7344;50.864;4.362;2023-07-16T13:37:01;24.60;99.90
14517;DHT22;7344;50.864;4.362;2023-07-16T13:39:26;24.20;1.00
14517;DHT22;7344;50.864;4.362;2023-07-16T13:41:52;23.80;99.90
14517;DHT22;7344;50.864;4.362;2023-07-16T13:44:17;23.70;99.90
14517;DHT22;7344;50.864;4.362;2023-07-16T13:46:43;23.90;99.90
14517;DHT22;7344;50.864;4.362;2023-07-16T13:49:09;23.70;99.90
14517;DHT22;7344;50.864;4.362;2023-07-16T13:51:34;23.60;1.00
14517;DHT22;7344;50.864;4.362;2023-07-16T13:54:00;23.40;99.90
14517;DHT22;7344;50.864;4.362;2023-07-16T13:56:26;23.50;1.00
14517;DHT22;7344;50.864;4.362;2023-07-16T13:58:51;23.70;1.00
14517;DHT22;7344;50.864;4.362;2023-07-16T14:01:19;23.60;99.90
14517;DHT22;7344;50.864;4.362;2023-07-16T14:03:44;23.70;99.90
14517;DHT22;7344;50.864;4.362;2023-07-16T14:06:10;23.60;1.00
14517;DHT22;7344;50.864;4.362;2023-07-16T14:08:36;23.50;99.90
14517;DHT22;7344;50.864;4.362;2023-07-16T14:11:02;23.70;1.00
14517;DHT22;7344;50.864;4.362;2023-07-16T14:13:28;24.00;99.90
14517;DHT22;7344;50.864;4.362;2023-07-16T14:15:54;24.00;1.00
14517;DHT22;7344;50.864;4.362;2023-07-16T14:18:20;23.90;1.00
14517;DHT22;7344;50.864;4.362;2023-07-16T14:20:45;23.90;1.00
14517;DHT22;7344;50.864;4.362;2023-07-16T14:23:11;23.80;1.00
14517;DHT22;7344;50.864;4.362;2023-07-16T14:25:37;23.90;1.00
14517;DHT22;7344;50.864;4.362;2023-07-16T14:28:03;24.20;1.00
14517;DHT22;7344;50.864;4.362;2023-07-16T14:30:28;24.50;99.90
14517;DHT22;7344;50.864;4.362;2023-07-16T14:32:55;24.30;1.00
14517;DHT22;7344;50.864;4.362;2023-07-16T14:35:21;23.90;1.00
14517;DHT22;7344;50.864;4.362;2023-07-16T14:37:47;24.10;99.90
14517;DHT22;7344;50.864;4.362;2023-07-16T14:40:13;24.30;1.00
14517;DHT22;7344;50.864;4.362;2023-07-16T14:42:39;24.30;99.90
14517;DHT22;7344;50.864;4.362;2023-07-16T14:45:05;24.30;40.80
14517;DHT22;7344;50.864;4.362;2023-07-16T14:47:33;24.30;1.00
14517;DHT22;7344;50.864;4.362;2023-07-16T14:49:59;24.30;99.90
14517;DHT22;7344;50.864;4.362;2023-07-16T14:52:24;24.50;99.90
14517;DHT22;7344;50.864;4.362;2023-07-16T14:54:50;24.70;99.90
14517;DHT22;7344;50.864;4.362;2023-07-16T14:57:16;25.20;86.40
14517;DHT22;7344;50.864;4.362;2023-07-16T14:59:42;25.00;1.00
14517;DHT22;7344;50.864;4.362;2023-07-16T15:02:08;24.50;1.00
14517;DHT22;7344;50.864;4.362;2023-07-16T15:04:34;24.30;1.00
14517;DHT22;7344;50.864;4.362;2023-07-16T15:07:00;24.30;12.80
14517;DHT22;7344;50.864;4.362;2023-07-16T15:09:26;24.10;32.70
14517;DHT22;7344;50.864;4.362;2023-07-16T15:11:52;24.20;94.50
14517;DHT22;7344;50.864;4.362;2023-07-16T15:14:18;24.10;20.00
14517;DHT22;7344;50.864;4.362;2023-07-16T15:16:44;24.20;44.10
14517;DHT22;7344;50.864;4.362;2023-07-16T15:19:09;24.10;69.40
14517;DHT22;7344;50.864;4.362;2023-07-16T15:21:37;24.20;99.90
14517;DHT22;7344;50.864;4.362;2023-07-16T15:24:04;24.20;99.90
14517;DHT22;7344;50.864;4.362;2023-07-16T15:26:30;24.40;99.90
14517;DHT22;7344;50.864;4.362;2023-07-16T15:28:57;24.60;99.90
14517;DHT22;7344;50.864;4.362;2023-07-16T15:31:22;24.80;99.90
14517;DHT22;7344;50.864;4.362;2023-07-16T15:33:56;25.20;99.90
14517;DHT22;7344;50.864;4.362;2023-07-16T15:36:23;25.10;99.90
14517;DHT22;7344;50.864;4.362;2023-07-16T15:38:48;25.10;99.90
14517;DHT22;7344;50.864;4.362;2023-07-16T15:41:18;25.40;99.90
14517;DHT22;7344;50.864;4.362;2023-07-16T15:43:50;24.90;99.90
14517;DHT22;7344;50.864;4.362;2023-07-16T15:46:16;24.90;99.90
14517;DHT22;7344;50.864;4.362;2023-07-16T15:48:43;24.50;1.00
14517;DHT22;7344;50.864;4.362;2023-07-16T15:51:14;24.30;1.00
14517;DHT22;7344;50.864;4.362;2023-07-16T15:53:40;23.90;99.90
14517;DHT22;7344;50.864;4.362;2023-07-16T15:56:05;23.80;1.00
14517;DHT22;7344;50.864;4.362;2023-07-16T15:58:31;23.90;1.00